Time;durP1;ratioP1;P1;durP2;ratioP2;P2;SDS_P1;SDS_P2;PMS_P1;PMS_P2;Temp;Humidity;BMP_temperature;BMP_pressure;BME280_temperature;BME280_humidity;BME280_pressure;Samples;Min_cycle;Max_cycle;Signal;HPM_P1;HPM_P2
2024/02/23 00:00:13;;;;;;;1.73;0.70;;;;;;;;;;5084127;28;20482;-76
2024/02/23 00:02:39;;;;;;;3.22;0.80;;;;;;;;;;5085990;28;20051;-76
2024/02/23 00:05:06;;;;;;;3.13;0.52;;;;;;;;;;5046982;28;20098;-77
2024/02/23 00:07:33;;;;;;;2.67;0.90;;;;;;;;;;5066398;28;20051;-77
2024/02/23 00:10:00;;;;;;;5.07;0.85;;;;;;;;;;5063168;28;20059;-78
2024/02/23 00:12:26;;;;;;;3.05;0.70;;;;;;;;;;5062300;28;20048;-77
2024/02/23 00:14:53;;;;;;;2.47;0.80;;;;;;;;;;5080007;28;20048;-79
2024/02/23 00:17:19;;;;;;;6.55;1.15;;;;;;;;;;5047256;28;20670;-78
2024/02/23 00:19:47;;;;;;;6.13;0.82;;;;;;;;;;5077335;28;20147;-77
2024/02/23 00:22:13;;;;;;;2.53;0.70;;;;;;;;;;5048603;28;20057;-76
2024/02/23 00:24:40;;;;;;;5.65;1.00;;;;;;;;;;5082449;28;20109;-76
2024/02/23 00:27:07;;;;;;;2.63;0.80;;;;;;;;;;5068097;28;20048;-76
2024/02/23 00:29:33;;;;;;;4.07;0.90;;;;;;;;;;5059703;28;20109;-73
2024/02/23 00:32:00;;;;;;;5.13;1.15;;;;;;;;;;5077387;28;20159;-73
2024/02/23 00:34:26;;;;;;;4.15;1.00;;;;;;;;;;5071651;28;20135;-73
2024/02/23 00:36:52;;;;;;;2.95;0.82;;;;;;;;;;5079763;28;20048;-72
2024/02/23 00:39:19;;;;;;;2.92;1.20;;;;;;;;;;5070563;28;20044;-73
2024/02/23 00:41:45;;;;;;;2.92;1.00;;;;;;;;;;5061944;28;20055;-72
2024/02/23 00:44:12;;;;;;;6.15;1.40;;;;;;;;;;5083969;28;20063;-72
2024/02/23 00:46:39;;;;;;;6.20;1.30;;;;;;;;;;5088067;28;20056;-72
2024/02/23 00:49:05;;;;;;;4.93;1.48;;;;;;;;;;5063954;28;20195;-72
2024/02/23 00:51:32;;;;;;;2.42;0.82;;;;;;;;;;5071090;28;20044;-72
2024/02/23 00:53:59;;;;;;;4.68;1.00;;;;;;;;;;5081581;28;20432;-72
2024/02/23 00:56:25;;;;;;;5.57;1.90;;;;;;;;;;5073692;28;20117;-73
2024/02/23 00:59:01;;;;;;;11.35;2.10;;;;;;;;;;5071390;28;20044;-73
2024/02/23 01:01:28;;;;;;;5.40;1.90;;;;;;;;;;5084867;28;20396;-73
2024/02/23 01:03:55;;;;;;;3.33;1.40;;;;;;;;;;5080097;28;20419;-74
2024/02/23 01:06:21;;;;;;;5.05;1.95;;;;;;;;;;5090838;28;20513;-73
2024/02/23 01:08:48;;;;;;;6.00;2.20;;;;;;;;;;5081248;28;20086;-74
2024/02/23 01:11:15;;;;;;;6.60;2.60;;;;;;;;;;5084180;28;20040;-73
2024/02/23 01:13:41;;;;;;;6.07;2.47;;;;;;;;;;5075642;28;20056;-72
2024/02/23 01:16:08;;;;;;;8.15;2.90;;;;;;;;;;5087709;28;20122;-72
2024/02/23 01:18:34;;;;;;;10.20;2.78;;;;;;;;;;5083245;28;20056;-72
2024/02/23 01:21:01;;;;;;;7.97;3.15;;;;;;;;;;5061527;28;20546;-72
2024/02/23 01:23:27;;;;;;;6.68;2.50;;;;;;;;;;5066577;28;20044;-72
2024/02/23 01:25:54;;;;;;;4.50;2.53;;;;;;;;;;5053152;28;20053;-72
2024/02/23 01:28:20;;;;;;;7.38;3.00;;;;;;;;;;5068877;28;20102;-72
2024/02/23 01:30:47;;;;;;;8.50;3.13;;;;;;;;;;5071141;28;20080;-72
2024/02/23 01:33:13;;;;;;;8.65;3.20;;;;;;;;;;5074930;28;20098;-72
2024/02/23 01:35:40;;;;;;;6.82;2.70;;;;;;;;;;5075060;28;20044;-73
2024/02/23 01:38:06;;;;;;;5.28;2.70;;;;;;;;;;5065458;28;20064;-73
2024/02/23 01:40:33;;;;;;;7.55;2.67;;;;;;;;;;5074402;28;20384;-72
2024/02/23 01:43:03;;;;;;;4.47;2.33;;;;;;;;;;5065866;28;20365;-72
2024/02/23 01:45:30;;;;;;;8.40;2.40;;;;;;;;;;5067912;28;20091;-72
2024/02/23 01:48:00;;;;;;;6.05;2.05;;;;;;;;;;5081590;28;20052;-73
2024/02/23 01:50:27;;;;;;;5.57;1.90;;;;;;;;;;5078476;28;20476;-72
2024/02/23 01:52:54;;;;;;;5.05;1.60;;;;;;;;;;5064000;28;20045;-72
2024/02/23 01:55:21;;;;;;;7.80;1.90;;;;;;;;;;5105947;28;20050;-72
2024/02/23 01:57:48;;;;;;;3.53;1.42;;;;;;;;;;5094103;28;20048;-72
2024/02/23 02:00:17;;;;;;;6.70;1.40;;;;;;;;;;5075821;28;20048;-72
2024/02/23 02:02:44;;;;;;;4.57;1.50;;;;;;;;;;5070545;28;20044;-72
2024/02/23 02:05:11;;;;;;;5.40;1.20;;;;;;;;;;5054873;28;20044;-72
2024/02/23 02:07:37;;;;;;;3.60;0.82;;;;;;;;;;5072350;28;20059;-73
2024/02/23 02:10:06;;;;;;;5.90;1.15;;;;;;;;;;5078864;28;20079;-72
2024/02/23 02:12:33;;;;;;;9.10;1.77;;;;;;;;;;5073926;28;20084;-73
2024/02/23 02:15:01;;;;;;;6.50;1.17;;;;;;;;;;5073235;28;20105;-73
2024/02/23 02:17:27;;;;;;;1.88;0.68;;;;;;;;;;5084111;28;20047;-72
2024/02/23 02:19:54;;;;;;;6.18;1.90;;;;;;;;;;5067309;28;20389;-72
2024/02/23 02:22:21;;;;;;;4.50;1.13;;;;;;;;;;5079740;28;20476;-72
2024/02/23 02:24:48;;;;;;;4.53;1.02;;;;;;;;;;5061314;28;20480;-73
2024/02/23 02:27:14;;;;;;;5.65;1.40;;;;;;;;;;5080524;28;20049;-72
2024/02/23 02:29:40;;;;;;;10.75;1.35;;;;;;;;;;5088572;28;20067;-73
2024/02/23 02:32:07;;;;;;;9.05;1.17;;;;;;;;;;5063479;28;20072;-72
2024/02/23 02:34:33;;;;;;;4.97;1.30;;;;;;;;;;5090327;28;20412;-72
2024/02/23 02:37:00;;;;;;;8.48;1.38;;;;;;;;;;5080334;28;20056;-72
2024/02/23 02:39:27;;;;;;;4.25;1.10;;;;;;;;;;5062214;28;20047;-73
2024/02/23 02:41:53;;;;;;;9.13;1.42;;;;;;;;;;5108072;27;20044;-72
2024/02/23 02:44:19;;;;;;;4.85;0.85;;;;;;;;;;5066672;28;20394;-72
2024/02/23 02:46:46;;;;;;;4.55;1.38;;;;;;;;;;5053727;28;20052;-72
2024/02/23 02:49:12;;;;;;;7.72;1.15;;;;;;;;;;5062542;28;20064;-75
2024/02/23 02:51:39;;;;;;;8.65;1.27;;;;;;;;;;5065999;28;20048;-77
2024/02/23 02:54:05;;;;;;;5.35;1.10;;;;;;;;;;5079334;28;20049;-76
2024/02/23 02:56:32;;;;;;;4.50;0.95;;;;;;;;;;5070629;28;20056;-77
2024/02/23 02:58:58;;;;;;;5.40;1.00;;;;;;;;;;5085674;28;20744;-77
2024/02/23 03:01:24;;;;;;;7.65;1.58;;;;;;;;;;5060581;28;20040;-78
2024/02/23 03:03:51;;;;;;;6.00;1.45;;;;;;;;;;5069510;28;20553;-77
2024/02/23 03:06:17;;;;;;;4.10;1.30;;;;;;;;;;5082690;28;20052;-76
2024/02/23 03:08:44;;;;;;;7.18;1.23;;;;;;;;;;5074825;28;20059;-76
2024/02/23 03:11:10;;;;;;;4.68;1.58;;;;;;;;;;5075772;28;20456;-76
2024/02/23 03:13:37;;;;;;;4.70;1.13;;;;;;;;;;5080423;28;20056;-75
2024/02/23 03:16:03;;;;;;;4.93;0.90;;;;;;;;;;5070330;28;20056;-77
2024/02/23 03:18:30;;;;;;;3.88;1.17;;;;;;;;;;5067014;28;20053;-76
2024/02/23 03:20:56;;;;;;;4.07;1.00;;;;;;;;;;5068626;28;20044;-75
2024/02/23 03:23:23;;;;;;;4.72;1.05;;;;;;;;;;5075704;28;20048;-76
2024/02/23 03:25:49;;;;;;;5.85;1.25;;;;;;;;;;5078503;28;20040;-77
2024/02/23 03:28:16;;;;;;;8.77;1.20;;;;;;;;;;5090049;28;20058;-77
2024/02/23 03:30:42;;;;;;;3.30;0.90;;;;;;;;;;5077365;28;20082;-76
2024/02/23 03:33:09;;;;;;;3.85;0.77;;;;;;;;;;5080853;28;20061;-77
2024/02/23 03:35:35;;;;;;;4.70;0.90;;;;;;;;;;5084519;28;20043;-76
2024/02/23 03:38:02;;;;;;;12.05;1.38;;;;;;;;;;5073087;28;20045;-76
2024/02/23 03:40:28;;;;;;;5.97;1.45;;;;;;;;;;5068371;28;20123;-77
2024/02/23 03:42:55;;;;;;;5.80;1.30;;;;;;;;;;5069887;28;20401;-78
2024/02/23 03:45:21;;;;;;;6.43;1.17;;;;;;;;;;5080819;28;22742;-76
2024/02/23 03:47:48;;;;;;;3.13;1.02;;;;;;;;;;5082306;28;20539;-76
2024/02/23 03:50:14;;;;;;;4.90;1.23;;;;;;;;;;5087799;28;20052;-76
2024/02/23 03:52:41;;;;;;;7.65;1.30;;;;;;;;;;5065759;28;20048;-76
2024/02/23 03:55:07;;;;;;;5.18;1.42;;;;;;;;;;5076654;28;20685;-76
2024/02/23 03:57:34;;;;;;;6.57;1.20;;;;;;;;;;5073894;28;20049;-77
2024/02/23 04:00:00;;;;;;;8.48;1.58;;;;;;;;;;5068665;28;20101;-72
2024/02/23 04:02:27;;;;;;;5.90;1.15;;;;;;;;;;5089238;28;20048;-74
2024/02/23 04:04:53;;;;;;;5.13;1.10;;;;;;;;;;5081974;28;20054;-73
2024/02/23 04:07:20;;;;;;;5.32;0.98;;;;;;;;;;5088100;28;20044;-72
2024/02/23 04:09:52;;;;;;;8.05;1.20;;;;;;;;;;5071892;28;20052;-73
2024/02/23 04:12:19;;;;;;;4.78;1.10;;;;;;;;;;5051612;28;20583;-72
2024/02/23 04:14:46;;;;;;;6.43;1.20;;;;;;;;;;5072127;28;20053;-72
2024/02/23 04:17:12;;;;;;;5.68;1.08;;;;;;;;;;5082376;28;20079;-72
2024/02/23 04:19:40;;;;;;;4.80;1.65;;;;;;;;;;5057393;28;20076;-72
2024/02/23 04:22:09;;;;;;;7.53;1.30;;;;;;;;;;5083905;28;20131;-72
2024/02/23 04:24:38;;;;;;;4.25;0.90;;;;;;;;;;5063961;28;20352;-72
2024/02/23 04:27:05;;;;;;;4.20;1.25;;;;;;;;;;5071048;28;20078;-72
2024/02/23 04:29:32;;;;;;;5.05;1.58;;;;;;;;;;5073365;28;20043;-72
2024/02/23 04:32:02;;;;;;;2.90;0.95;;;;;;;;;;5078721;28;20452;-73
2024/02/23 04:34:29;;;;;;;3.97;1.00;;;;;;;;;;5072887;28;20040;-73
2024/02/23 04:36:55;;;;;;;7.68;1.30;;;;;;;;;;5094517;28;20495;-72
2024/02/23 04:39:21;;;;;;;4.97;1.20;;;;;;;;;;5051560;28;20076;-72
2024/02/23 04:41:48;;;;;;;6.07;1.42;;;;;;;;;;5080702;28;20074;-72
2024/02/23 04:44:14;;;;;;;10.32;2.28;;;;;;;;;;5085100;28;20358;-73
2024/02/23 04:46:41;;;;;;;7.78;1.20;;;;;;;;;;5068496;28;20107;-72
2024/02/23 04:49:07;;;;;;;3.97;0.93;;;;;;;;;;5090506;28;20058;-72
2024/02/23 04:51:34;;;;;;;4.63;1.35;;;;;;;;;;5069987;28;20058;-74
2024/02/23 04:54:00;;;;;;;8.45;1.25;;;;;;;;;;5070415;28;20097;-72
2024/02/23 04:56:27;;;;;;;4.18;1.20;;;;;;;;;;5090572;28;20138;-73
2024/02/23 04:58:53;;;;;;;4.97;0.90;;;;;;;;;;5073992;28;20063;-72
2024/02/23 05:01:19;;;;;;;5.07;1.25;;;;;;;;;;5077537;28;20492;-73
2024/02/23 05:03:46;;;;;;;6.57;1.58;;;;;;;;;;5071515;28;20094;-73
2024/02/23 05:06:13;;;;;;;4.35;1.20;;;;;;;;;;5072715;28;20365;-73
2024/02/23 05:08:39;;;;;;;7.45;1.75;;;;;;;;;;5089349;28;20063;-72
2024/02/23 05:11:07;;;;;;;7.07;1.33;;;;;;;;;;5056636;28;20144;-72
2024/02/23 05:13:33;;;;;;;6.03;1.42;;;;;;;;;;5078664;28;20059;-73
2024/02/23 05:16:00;;;;;;;3.22;1.00;;;;;;;;;;5058254;28;20048;-72
2024/02/23 05:18:26;;;;;;;5.03;1.40;;;;;;;;;;5072439;28;20972;-72
2024/02/23 05:20:53;;;;;;;5.93;1.48;;;;;;;;;;5069860;28;20135;-72
2024/02/23 05:23:20;;;;;;;5.03;1.27;;;;;;;;;;5077751;28;20048;-73
2024/02/23 05:25:47;;;;;;;8.02;1.10;;;;;;;;;;5063193;28;20144;-73
2024/02/23 05:28:13;;;;;;;6.78;2.17;;;;;;;;;;5074858;28;20081;-73
2024/02/23 05:30:40;;;;;;;7.57;1.30;;;;;;;;;;5060153;28;20056;-72
2024/02/23 05:33:07;;;;;;;6.15;1.20;;;;;;;;;;5088892;28;20113;-73
2024/02/23 05:35:33;;;;;;;6.97;1.60;;;;;;;;;;5072277;28;20130;-72
2024/02/23 05:38:00;;;;;;;6.10;1.30;;;;;;;;;;5073078;28;20060;-72
2024/02/23 05:40:27;;;;;;;8.98;1.40;;;;;;;;;;5089149;28;20423;-73
2024/02/23 05:42:54;;;;;;;12.07;1.52;;;;;;;;;;5091509;28;20075;-72
2024/02/23 05:45:22;;;;;;;3.80;1.05;;;;;;;;;;5057260;28;20044;-72
2024/02/23 05:47:49;;;;;;;8.57;1.27;;;;;;;;;;5099627;28;20087;-72
2024/02/23 05:50:15;;;;;;;6.47;1.27;;;;;;;;;;5055573;28;20043;-72
2024/02/23 05:52:42;;;;;;;4.50;1.52;;;;;;;;;;5079494;28;20052;-72
2024/02/23 05:55:09;;;;;;;4.38;1.20;;;;;;;;;;5086607;28;20052;-72
2024/02/23 05:57:35;;;;;;;3.90;1.50;;;;;;;;;;5068860;28;20052;-72
2024/02/23 06:00:02;;;;;;;11.00;1.63;;;;;;;;;;5070276;28;20055;-72
2024/02/23 06:02:28;;;;;;;7.07;1.30;;;;;;;;;;5080188;28;20594;-72
2024/02/23 06:04:55;;;;;;;16.60;1.70;;;;;;;;;;5063873;28;20052;-72
2024/02/23 06:07:28;;;;;;;3.45;1.40;;;;;;;;;;5052873;28;20063;-72
2024/02/23 06:09:56;;;;;;;4.72;1.70;;;;;;;;;;5084920;28;20068;-72
2024/02/23 06:12:22;;;;;;;7.45;1.70;;;;;;;;;;5071308;28;20082;-73
2024/02/23 06:14:50;;;;;;;8.10;1.63;;;;;;;;;;5080501;28;20048;-72
2024/02/23 06:17:16;;;;;;;7.28;1.17;;;;;;;;;;5069865;28;20127;-73
2024/02/23 06:19:43;;;;;;;7.85;1.45;;;;;;;;;;5068893;28;20052;-72
2024/02/23 06:22:10;;;;;;;8.80;1.42;;;;;;;;;;5076296;28;20059;-72
2024/02/23 06:24:37;;;;;;;10.40;1.48;;;;;;;;;;5056542;28;20064;-72
2024/02/23 06:27:03;;;;;;;7.13;1.55;;;;;;;;;;5068217;28;20095;-72
2024/02/23 06:29:30;;;;;;;5.35;1.15;;;;;;;;;;5083379;28;20045;-75
2024/02/23 06:31:56;;;;;;;10.05;1.85;;;;;;;;;;5079182;28;20695;-77
2024/02/23 06:34:23;;;;;;;4.30;1.23;;;;;;;;;;5075628;28;20052;-77
2024/02/23 06:36:50;;;;;;;8.07;1.52;;;;;;;;;;5075022;28;20048;-76
2024/02/23 06:39:18;;;;;;;5.68;1.20;;;;;;;;;;5090613;28;20716;-78
2024/02/23 06:41:44;;;;;;;6.25;1.40;;;;;;;;;;5064053;28;20044;-76
2024/02/23 06:44:11;;;;;;;4.28;1.02;;;;;;;;;;5057686;28;20058;-76
2024/02/23 06:46:38;;;;;;;4.43;1.08;;;;;;;;;;5057274;28;20076;-75
2024/02/23 06:49:04;;;;;;;7.97;1.40;;;;;;;;;;5048520;28;20052;-78
2024/02/23 06:51:31;;;;;;;4.72;0.93;;;;;;;;;;5079274;28;20057;-77
2024/02/23 06:53:58;;;;;;;6.25;1.27;;;;;;;;;;5086657;28;20446;-78
2024/02/23 06:56:24;;;;;;;6.43;1.10;;;;;;;;;;5077473;28;20105;-77
2024/02/23 06:58:50;;;;;;;6.57;0.95;;;;;;;;;;5065573;28;20055;-77
2024/02/23 07:01:20;;;;;;;4.93;1.10;;;;;;;;;;5069368;28;20129;-78
2024/02/23 07:03:49;;;;;;;7.28;1.25;;;;;;;;;;5088757;28;20576;-77
2024/02/23 07:06:18;;;;;;;3.28;0.98;;;;;;;;;;5061823;28;20075;-80
2024/02/23 07:08:45;;;;;;;6.28;1.45;;;;;;;;;;5078985;28;20071;-80
2024/02/23 07:11:11;;;;;;;5.63;1.23;;;;;;;;;;5074492;28;20072;-79
2024/02/23 07:13:38;;;;;;;4.70;1.23;;;;;;;;;;5067463;28;20048;-79
2024/02/23 07:16:05;;;;;;;6.53;1.30;;;;;;;;;;5085715;28;20584;-79
2024/02/23 07:18:32;;;;;;;5.55;1.13;;;;;;;;;;5070012;28;20052;-79
2024/02/23 07:20:59;;;;;;;6.25;1.75;;;;;;;;;;5061717;28;20093;-79
2024/02/23 07:23:25;;;;;;;2.65;1.02;;;;;;;;;;5065058;28;20048;-80
2024/02/23 07:25:52;;;;;;;4.43;0.95;;;;;;;;;;5063670;28;20052;-78
2024/02/23 07:28:20;;;;;;;7.25;1.30;;;;;;;;;;5084839;28;20094;-80
2024/02/23 07:30:46;;;;;;;3.70;0.98;;;;;;;;;;5074871;28;20049;-81
2024/02/23 07:33:13;;;;;;;8.63;1.52;;;;;;;;;;5077133;28;20071;-81
2024/02/23 07:35:39;;;;;;;7.25;1.48;;;;;;;;;;5076654;28;20044;-81
2024/02/23 07:38:06;;;;;;;7.63;1.00;;;;;;;;;;5067024;28;20048;-80
2024/02/23 07:40:32;;;;;;;4.50;1.10;;;;;;;;;;5081299;28;20068;-79
2024/02/23 07:42:59;;;;;;;7.43;1.30;;;;;;;;;;5078942;28;20052;-83
2024/02/23 07:45:26;;;;;;;4.68;1.20;;;;;;;;;;5082250;28;20127;-80
2024/02/23 07:47:52;;;;;;;6.80;1.40;;;;;;;;;;5071567;28;20051;-81
2024/02/23 07:50:19;;;;;;;5.88;1.63;;;;;;;;;;5092107;28;20131;-73
2024/02/23 07:52:46;;;;;;;9.30;1.38;;;;;;;;;;5076480;28;20056;-73
2024/02/23 07:55:12;;;;;;;6.47;1.00;;;;;;;;;;5070524;28;20123;-73
2024/02/23 07:57:42;;;;;;;8.10;1.50;;;;;;;;;;5084450;28;20418;-74
2024/02/23 08:00:09;;;;;;;2.22;0.80;;;;;;;;;;5094290;28;20052;-74
2024/02/23 08:02:36;;;;;;;3.83;0.85;;;;;;;;;;5081717;28;20049;-74
2024/02/23 08:05:03;;;;;;;6.53;1.80;;;;;;;;;;5069655;28;20055;-74
2024/02/23 08:07:30;;;;;;;6.95;1.23;;;;;;;;;;5072622;28;20093;-74
2024/02/23 08:09:57;;;;;;;6.40;0.90;;;;;;;;;;5077046;28;20058;-75
2024/02/23 08:12:23;;;;;;;6.68;1.23;;;;;;;;;;5092620;28;20048;-74
2024/02/23 08:14:53;;;;;;;5.32;1.00;;;;;;;;;;5074944;28;20378;-74
2024/02/23 08:17:20;;;;;;;7.60;1.70;;;;;;;;;;5074373;28;20052;-74
2024/02/23 08:19:47;;;;;;;6.35;1.20;;;;;;;;;;5085775;28;20053;-74
2024/02/23 08:22:13;;;;;;;8.57;1.80;;;;;;;;;;5079667;28;20405;-74
2024/02/23 08:24:40;;;;;;;4.75;1.00;;;;;;;;;;5083038;28;20101;-74
2024/02/23 08:27:07;;;;;;;5.57;1.15;;;;;;;;;;5082562;28;20465;-73
2024/02/23 08:29:33;;;;;;;8.70;1.70;;;;;;;;;;5066533;28;20048;-74
2024/02/23 08:32:00;;;;;;;7.97;1.30;;;;;;;;;;5107175;28;20052;-73
2024/02/23 08:34:28;;;;;;;;;;;;;;;;;;5076195;28;20135;-74
2024/02/23 08:36:55;;;;;;;8.93;1.42;;;;;;;;;;5112446;27;20022;-74
2024/02/23 08:39:22;;;;;;;4.43;1.20;;;;;;;;;;5091366;28;20044;-74
2024/02/23 08:41:51;;;;;;;5.53;0.93;;;;;;;;;;5078468;28;20048;-74
2024/02/23 08:44:17;;;;;;;;;;;;;;;;;;5087849;28;20433;-74
2024/02/23 08:46:44;;;;;;;5.20;1.17;;;;;;;;;;5073283;28;20003;-74
2024/02/23 08:49:10;;;;;;;5.68;1.17;;;;;;;;;;5074051;28;20071;-73
2024/02/23 08:51:40;;;;;;;;;;;;;;;;;;5062790;28;20056;-74
2024/02/23 08:54:08;;;;;;;2.70;0.93;;;;;;;;;;5090929;28;20006;-73
2024/02/23 08:56:39;;;;;;;2.53;0.75;;;;;;;;;;5093141;28;20059;-73
2024/02/23 08:59:05;;;;;;;5.03;0.88;;;;;;;;;;5100331;28;20764;-75
2024/02/23 09:01:32;;;;;;;3.65;0.90;;;;;;;;;;5083620;28;20041;-82
2024/02/23 09:03:58;;;;;;;3.90;1.00;;;;;;;;;;5090871;28;20044;-83
2024/02/23 09:06:25;;;;;;;10.40;1.45;;;;;;;;;;5085272;28;20137;-78
2024/02/23 09:08:52;;;;;;;7.05;1.08;;;;;;;;;;5099834;28;20040;-80
2024/02/23 09:11:18;;;;;;;5.72;1.20;;;;;;;;;;5061657;28;20059;-85
2024/02/23 09:13:45;;;;;;;8.02;1.05;;;;;;;;;;5066497;28;20036;-81
2024/02/23 09:16:11;;;;;;;5.93;1.10;;;;;;;;;;5076463;28;20048;-85
2024/02/23 09:18:38;;;;;;;4.75;1.25;;;;;;;;;;5075514;28;20143;-78
2024/02/23 09:21:04;;;;;;;7.32;1.17;;;;;;;;;;5059198;28;20131;-86
2024/02/23 09:23:31;;;;;;;8.02;1.30;;;;;;;;;;5061911;28;20469;-79
2024/02/23 09:25:57;;;;;;;5.43;1.25;;;;;;;;;;5081664;28;20048;-82
2024/02/23 09:28:24;;;;;;;4.55;1.27;;;;;;;;;;5072263;28;20500;-75
2024/02/23 09:30:50;;;;;;;4.20;0.90;;;;;;;;;;5069319;28;20444;-82
2024/02/23 09:33:17;;;;;;;4.57;0.90;;;;;;;;;;5061181;28;20048;-78
2024/02/23 09:35:43;;;;;;;5.47;0.95;;;;;;;;;;5069146;28;20114;-85
2024/02/23 09:38:10;;;;;;;11.38;1.40;;;;;;;;;;5085121;28;20062;-86
2024/02/23 09:40:38;;;;;;;12.98;1.60;;;;;;;;;;5071410;28;20159;-84
2024/02/23 09:43:07;;;;;;;4.63;1.02;;;;;;;;;;5073173;28;20048;-84
2024/02/23 09:45:34;;;;;;;6.00;0.98;;;;;;;;;;5074948;28;20042;-82
2024/02/23 09:48:00;;;;;;;5.13;1.33;;;;;;;;;;5056842;28;20044;-83
2024/02/23 09:50:28;;;;;;;7.35;1.13;;;;;;;;;;5077687;28;20052;-77
2024/02/23 09:52:56;;;;;;;8.23;1.45;;;;;;;;;;5050971;28;20055;-84
2024/02/23 09:55:22;;;;;;;5.05;1.23;;;;;;;;;;5062965;28;20055;-82
2024/02/23 09:57:51;;;;;;;6.18;1.00;;;;;;;;;;5082046;28;20051;-83
2024/02/23 10:00:18;;;;;;;;;;;;;;;;;;5079735;28;20498;-81
2024/02/23 10:02:44;;;;;;;5.10;1.30;;;;;;;;;;5065702;28;19924;-82
2024/02/23 10:05:12;;;;;;;3.60;1.45;;;;;;;;;;5078052;28;20079;-81
2024/02/23 10:07:39;;;;;;;4.80;1.03;;;;;;;;;;5072987;28;20380;-80
2024/02/23 10:10:08;;;;;;;7.95;0.90;;;;;;;;;;5053672;28;20295;-73
2024/02/23 10:12:39;;;;;;;5.22;1.00;;;;;;;;;;5084844;28;20083;-73
2024/02/23 10:15:07;;;;;;;4.25;1.00;;;;;;;;;;5077670;28;20056;-73
2024/02/23 10:17:33;;;;;;;6.95;1.30;;;;;;;;;;5075303;28;20094;-74
2024/02/23 10:20:05;;;;;;;8.43;1.42;;;;;;;;;;5055323;28;20044;-73
2024/02/23 10:22:31;;;;;;;5.25;1.58;;;;;;;;;;5077696;28;20052;-72
2024/02/23 10:24:58;;;;;;;4.40;1.30;;;;;;;;;;5056019;28;20053;-74
2024/02/23 10:27:27;;;;;;;5.85;1.15;;;;;;;;;;5055984;28;20076;-74
2024/02/23 10:29:54;;;;;;;9.27;1.83;;;;;;;;;;5080290;28;20083;-74
2024/02/23 10:32:21;;;;;;;5.00;1.08;;;;;;;;;;5066534;28;20047;-73
2024/02/23 10:34:51;;;;;;;4.53;1.02;;;;;;;;;;5090625;28;20158;-73
2024/02/23 10:37:18;;;;;;;6.82;1.20;;;;;;;;;;5058750;28;20059;-73
2024/02/23 10:39:45;;;;;;;3.85;1.02;;;;;;;;;;5070191;28;20090;-73
2024/02/23 10:42:12;;;;;;;6.53;1.40;;;;;;;;;;5057097;28;20116;-73
2024/02/23 10:44:41;;;;;;;4.43;1.30;;;;;;;;;;5086226;28;20213;-73
2024/02/23 10:47:09;;;;;;;5.30;1.17;;;;;;;;;;5080651;28;20054;-73
2024/02/23 10:49:36;;;;;;;;;;;;;;;;;;5078020;28;20047;-73
2024/02/23 10:52:03;;;;;;;6.03;1.13;;;;;;;;;;5094309;28;19927;-73
2024/02/23 10:54:31;;;;;;;3.47;0.90;;;;;;;;;;5080951;28;20098;-73
2024/02/23 10:56:57;;;;;;;2.47;0.60;;;;;;;;;;5078317;28;20049;-74
2024/02/23 10:59:24;;;;;;;5.53;0.90;;;;;;;;;;5073570;28;20094;-73
2024/02/23 11:01:51;;;;;;;7.93;1.13;;;;;;;;;;5093005;28;20063;-73
2024/02/23 11:04:19;;;;;;;4.13;0.80;;;;;;;;;;5076254;28;20048;-73
2024/02/23 11:06:50;;;;;;;3.75;0.70;;;;;;;;;;5096028;28;20117;-73
2024/02/23 11:09:20;;;;;;;4.53;1.23;;;;;;;;;;5082446;28;20055;-73
2024/02/23 11:11:57;;;;;;;4.45;0.82;;;;;;;;;;5065776;28;20044;-73
2024/02/23 11:14:34;;;;;;;6.43;1.17;;;;;;;;;;5082959;28;20044;-73
2024/02/23 11:17:01;;;;;;;5.18;1.00;;;;;;;;;;5080920;28;20055;-73
2024/02/23 11:19:35;;;;;;;2.97;0.77;;;;;;;;;;5101169;28;20475;-79
2024/02/23 11:22:02;;;;;;;3.28;0.93;;;;;;;;;;5055824;28;20465;-82
2024/02/23 11:24:30;;;;;;;3.55;1.08;;;;;;;;;;5068899;28;20440;-83
2024/02/23 11:27:00;;;;;;;3.50;0.85;;;;;;;;;;5087346;28;20202;-81
2024/02/23 11:29:28;;;;;;;3.22;0.80;;;;;;;;;;5077155;28;20127;-77
2024/02/23 11:32:00;;;;;;;2.45;0.85;;;;;;;;;;5075356;28;20044;-83
2024/02/23 11:34:27;;;;;;;3.83;0.80;;;;;;;;;;5081694;28;20048;-84
2024/02/23 11:36:54;;;;;;;4.80;0.93;;;;;;;;;;5079065;28;20037;-82
2024/02/23 11:39:21;;;;;;;3.53;1.02;;;;;;;;;;5081262;28;20032;-83
2024/02/23 11:41:49;;;;;;;3.47;0.90;;;;;;;;;;5081903;28;20047;-79
2024/02/23 11:44:17;;;;;;;4.07;1.00;;;;;;;;;;5063897;28;20215;-83
2024/02/23 11:46:44;;;;;;;2.07;0.83;;;;;;;;;;5073756;28;20133;-79
2024/02/23 11:49:11;;;;;;;3.05;0.90;;;;;;;;;;5055758;28;20293;-81
2024/02/23 11:51:38;;;;;;;3.47;0.98;;;;;;;;;;5070881;28;20040;-81
2024/02/23 11:54:04;;;;;;;6.53;1.17;;;;;;;;;;5088442;28;20422;-84
2024/02/23 11:56:32;;;;;;;5.23;0.90;;;;;;;;;;5080063;28;20076;-80
2024/02/23 11:58:59;;;;;;;6.32;0.95;;;;;;;;;;5066964;28;20330;-82
2024/02/23 12:01:28;;;;;;;4.90;1.00;;;;;;;;;;5088606;28;20040;-80
2024/02/23 12:03:55;;;;;;;5.20;1.10;;;;;;;;;;5072840;28;20056;-81
2024/02/23 12:06:21;;;;;;;4.65;1.20;;;;;;;;;;5074776;28;20602;-80
2024/02/23 12:08:49;;;;;;;3.50;1.10;;;;;;;;;;5064699;28;20078;-79
2024/02/23 12:11:15;;;;;;;6.53;1.33;;;;;;;;;;5078120;28;20404;-80
2024/02/23 12:13:42;;;;;;;4.60;1.00;;;;;;;;;;5078131;28;20294;-78
2024/02/23 12:16:09;;;;;;;5.53;1.02;;;;;;;;;;5086479;28;20131;-80
2024/02/23 12:18:36;;;;;;;4.18;1.25;;;;;;;;;;5068124;28;20048;-79
2024/02/23 12:21:06;;;;;;;4.88;0.93;;;;;;;;;;5064052;28;20054;-79
2024/02/23 12:23:40;;;;;;;6.82;0.80;;;;;;;;;;5089918;28;20067;-79
2024/02/23 12:26:07;;;;;;;6.07;1.00;;;;;;;;;;5064683;28;20080;-80
2024/02/23 12:28:34;;;;;;;4.40;0.70;;;;;;;;;;5068713;28;20069;-73
2024/02/23 12:31:01;;;;;;;2.60;0.98;;;;;;;;;;5073942;28;20105;-73
2024/02/23 12:33:31;;;;;;;3.67;0.70;;;;;;;;;;5073181;28;20048;-72
2024/02/23 12:35:58;;;;;;;6.90;1.25;;;;;;;;;;5063383;28;20044;-72
2024/02/23 12:38:25;;;;;;;3.88;0.90;;;;;;;;;;5071430;28;20094;-73
2024/02/23 12:40:52;;;;;;;4.50;1.08;;;;;;;;;;5090522;28;20041;-72
2024/02/23 12:43:21;;;;;;;4.30;0.90;;;;;;;;;;5085429;28;20079;-73
2024/02/23 12:45:51;;;;;;;5.20;1.05;;;;;;;;;;5072533;28;20082;-71
2024/02/23 12:48:17;;;;;;;1.75;0.90;;;;;;;;;;5074251;28;20052;-72
2024/02/23 12:50:48;;;;;;;5.60;1.27;;;;;;;;;;5100206;27;20159;-72
2024/02/23 12:53:30;;;;;;;8.57;1.17;;;;;;;;;;5076115;28;20075;-72
2024/02/23 12:55:58;;;;;;;1.83;0.93;;;;;;;;;;5101003;28;20173;-71
2024/02/23 12:58:25;;;;;;;5.63;1.00;;;;;;;;;;5075814;28;20090;-72
2024/02/23 13:00:52;;;;;;;5.88;1.17;;;;;;;;;;5067473;28;20048;-72
2024/02/23 13:03:18;;;;;;;5.78;1.25;;;;;;;;;;5057462;28;20059;-71
2024/02/23 13:05:45;;;;;;;4.30;1.08;;;;;;;;;;5073152;28;20044;-73
2024/02/23 13:08:11;;;;;;;3.65;1.27;;;;;;;;;;5076614;28;20122;-72
2024/02/23 13:10:38;;;;;;;5.18;1.42;;;;;;;;;;5098710;28;20073;-73
2024/02/23 13:13:04;;;;;;;3.83;1.10;;;;;;;;;;5076274;28;20434;-74
2024/02/23 13:15:31;;;;;;;7.13;1.42;;;;;;;;;;5073781;28;20048;-74
2024/02/23 13:17:58;;;;;;;3.85;1.10;;;;;;;;;;5058339;28;20440;-72
2024/02/23 13:20:24;;;;;;;2.83;0.95;;;;;;;;;;5091588;28;20047;-72
2024/02/23 13:22:51;;;;;;;3.03;1.10;;;;;;;;;;5086102;28;20063;-72
2024/02/23 13:25:17;;;;;;;5.35;1.20;;;;;;;;;;5078935;28;20059;-73
2024/02/23 13:27:44;;;;;;;4.35;1.10;;;;;;;;;;5088924;28;20049;-73
2024/02/23 13:30:11;;;;;;;8.00;1.70;;;;;;;;;;5092111;28;20052;-73
2024/02/23 13:32:38;;;;;;;6.00;1.20;;;;;;;;;;5068719;28;20056;-73
2024/02/23 13:35:06;;;;;;;4.22;1.20;;;;;;;;;;5073135;28;20040;-72
2024/02/23 13:37:33;;;;;;;7.60;1.83;;;;;;;;;;5078077;28;20052;-72
2024/02/23 13:40:00;;;;;;;3.78;1.05;;;;;;;;;;5065742;28;20044;-80
2024/02/23 13:42:26;;;;;;;6.13;1.73;;;;;;;;;;5075154;28;20044;-84
2024/02/23 13:44:52;;;;;;;6.40;1.33;;;;;;;;;;5061991;28;20045;-79
2024/02/23 13:47:19;;;;;;;8.05;1.90;;;;;;;;;;5101459;28;20044;-84
2024/02/23 13:49:45;;;;;;;3.00;1.20;;;;;;;;;;5063021;28;20044;-83
2024/02/23 13:52:12;;;;;;;6.30;1.27;;;;;;;;;;5077912;28;20076;-80
2024/02/23 13:54:38;;;;;;;4.85;1.30;;;;;;;;;;5057930;28;20055;-83
2024/02/23 13:57:04;;;;;;;3.83;1.38;;;;;;;;;;5063778;28;20129;-82
2024/02/23 13:59:31;;;;;;;4.07;1.70;;;;;;;;;;5069621;28;20044;-79
2024/02/23 14:01:57;;;;;;;5.63;1.70;;;;;;;;;;5063061;28;20067;-78
2024/02/23 14:04:24;;;;;;;4.88;1.20;;;;;;;;;;5070209;28;20109;-80
2024/02/23 14:06:50;;;;;;;4.80;1.27;;;;;;;;;;5073553;28;20056;-78
2024/02/23 14:09:17;;;;;;;5.95;1.10;;;;;;;;;;5066102;28;20052;-82
2024/02/23 14:11:44;;;;;;;5.93;1.13;;;;;;;;;;5080595;28;20154;-82
2024/02/23 14:14:11;;;;;;;3.70;0.98;;;;;;;;;;5079840;28;20040;-87
2024/02/23 14:16:38;;;;;;;6.63;1.60;;;;;;;;;;5083105;28;20419;-86
2024/02/23 14:19:04;;;;;;;5.15;1.23;;;;;;;;;;5074147;28;20128;-79
2024/02/23 14:21:30;;;;;;;4.65;1.02;;;;;;;;;;5061925;28;20101;-86
2024/02/23 14:23:57;;;;;;;5.88;1.75;;;;;;;;;;5075291;28;20041;-80
2024/02/23 14:26:23;;;;;;;4.10;1.17;;;;;;;;;;5066562;28;20052;-86
2024/02/23 14:28:50;;;;;;;4.72;1.20;;;;;;;;;;5068830;28;20051;-79
2024/02/23 14:31:16;;;;;;;7.65;1.40;;;;;;;;;;5071006;28;20067;-84
2024/02/23 14:33:43;;;;;;;7.55;1.42;;;;;;;;;;5078263;28;20550;-81
2024/02/23 14:36:13;;;;;;;8.00;1.30;;;;;;;;;;5073401;28;20039;-80
2024/02/23 14:38:39;;;;;;;3.28;0.98;;;;;;;;;;5069776;28;20534;-83
2024/02/23 14:41:08;;;;;;;3.20;0.95;;;;;;;;;;5076201;28;20071;-84